Decoded Metar for PASL (SLEETMUTE in AK, USA) (IATA:SLQ) | Meteo·Mobile Aviation Weather
aviador You're here:

PASL Decoded Metar

SLEETMUTE in AK, USA
Report Time2019-07-22 00:56:00
UTC Time2019-07-22 01:28:50
Flight Rules vfr VFR
WindCalm
Visibility9999 m
Phenomena:N/A
Clouds:Broken 039 Hf
Expected CloudBase > 3,600 ft AGL from Temp-Dew spread
Ceiling3,900 ft
Temp21°C (ISA +6)
Dew Point12°C (57% RH)
QNH1021 hPa
Density Alt843 ft
Elevation180 ft
Report Wrong Elevation
Raw Report
PASL 220056Z AUTO 00000KT 10SM BKN039 21/12 A3016 RMK AO2 SLP211
T02060117=

Extra information for PASL:More info

Metar Taf Metar & Taf Last 4 Metars F.Rules Stats Wind Profile Meteogram Temp Stats Airport Information Weather charts Add Link Nearby VenuesMetar ALERT Operation Metar Decoded Social comments

AIRNAV info for PASL